createdAt,value
2022-08-17T00:00:44.206Z,23.25
2022-08-17T00:03:40.345Z,23.25
2022-08-17T00:06:40.358Z,23.2
2022-08-17T00:09:40.344Z,23.2
2022-08-17T00:12:44.270Z,23.2
2022-08-17T00:15:40.360Z,23.2
2022-08-17T00:18:53.696Z,23.15
2022-08-17T00:22:31.186Z,23.15
2022-08-17T00:24:40.348Z,23.15
2022-08-17T00:27:40.366Z,23.1
2022-08-17T00:30:50.791Z,23.1
2022-08-17T00:33:40.353Z,23.1
2022-08-17T00:36:40.352Z,23.05
2022-08-17T00:39:40.402Z,23.05
2022-08-17T00:42:40.368Z,23.05
2022-08-17T00:45:40.352Z,23.05
2022-08-17T00:48:40.351Z,23.05
2022-08-17T00:51:40.351Z,23
2022-08-17T00:54:41.069Z,23
2022-08-17T00:57:40.352Z,22.95
2022-08-17T01:00:40.399Z,22.95
2022-08-17T01:03:40.510Z,22.95
2022-08-17T01:06:40.361Z,22.9
2022-08-17T01:09:40.362Z,22.9
2022-08-17T01:12:40.363Z,22.85
2022-08-17T01:15:40.362Z,22.85
2022-08-17T01:18:40.349Z,22.85
2022-08-17T01:21:40.365Z,22.85
2022-08-17T01:24:40.363Z,22.85
2022-08-17T01:27:40.363Z,22.8
2022-08-17T01:30:57.538Z,22.75
2022-08-17T01:33:40.363Z,22.75
2022-08-17T01:36:40.379Z,22.75
2022-08-17T01:39:40.494Z,22.75
2022-08-17T01:42:40.366Z,22.7
2022-08-17T01:45:40.352Z,22.7
2022-08-17T01:48:40.371Z,22.7
2022-08-17T01:51:40.370Z,22.65
2022-08-17T01:54:40.365Z,22.65
2022-08-17T01:57:40.365Z,22.65
2022-08-17T02:00:46.918Z,22.65
2022-08-17T02:03:40.366Z,22.65
2022-08-17T02:06:45.508Z,22.6
2022-08-17T02:09:40.365Z,22.6
2022-08-17T02:12:40.371Z,22.6
2022-08-17T02:15:40.365Z,22.6
2022-08-17T02:18:40.366Z,22.6
2022-08-17T02:21:40.372Z,22.6
2022-08-17T02:24:59.313Z,22.6
2022-08-17T02:27:40.366Z,22.6
2022-08-17T02:31:00.594Z,22.6
2022-08-17T02:33:42.354Z,22.6
2022-08-17T02:36:40.374Z,22.55
2022-08-17T02:39:40.442Z,22.55
2022-08-17T02:42:40.366Z,22.55
2022-08-17T02:45:40.367Z,22.55
2022-08-17T02:48:40.372Z,22.45
2022-08-17T02:51:40.370Z,22.45
2022-08-17T02:54:42.215Z,22.45
2022-08-17T02:57:40.365Z,22.45
2022-08-17T03:00:40.363Z,22.45
2022-08-17T03:03:40.372Z,22.45
2022-08-17T03:06:40.364Z,22.4
2022-08-17T03:09:40.370Z,22.35
2022-08-17T03:12:40.368Z,22.35
2022-08-17T03:15:40.614Z,22.35
2022-08-17T03:18:40.364Z,22.3
2022-08-17T03:21:40.369Z,22.3
2022-08-17T03:24:40.367Z,22.25
2022-08-17T03:27:41.974Z,22.2
2022-08-17T03:30:40.369Z,22.2
2022-08-17T03:33:40.373Z,22.2
2022-08-17T03:36:40.375Z,22.2
2022-08-17T03:42:40.370Z,22.15
2022-08-17T03:45:40.379Z,22.15
2022-08-17T03:48:40.377Z,22.15
2022-08-17T03:51:40.368Z,22.1
2022-08-17T03:54:40.372Z,22.1
2022-08-17T03:57:40.375Z,22.1
2022-08-17T04:00:40.373Z,22.05
2022-08-17T04:03:40.372Z,22.05
2022-08-17T04:06:40.372Z,22.05
2022-08-17T04:09:40.388Z,22
2022-08-17T04:12:40.379Z,21.95
2022-08-17T04:15:40.388Z,21.95
2022-08-17T04:18:40.389Z,21.95
2022-08-17T04:21:40.373Z,21.95
2022-08-17T04:24:40.373Z,21.95
2022-08-17T04:27:40.378Z,21.95
2022-08-17T04:30:40.388Z,21.95
2022-08-17T04:33:40.377Z,21.95
2022-08-17T04:36:40.376Z,21.95
2022-08-17T04:39:40.406Z,21.95
2022-08-17T04:42:40.392Z,21.95
2022-08-17T04:45:40.377Z,21.95
2022-08-17T04:48:40.383Z,21.95
2022-08-17T04:51:43.772Z,21.95
2022-08-17T04:54:40.381Z,21.95
2022-08-17T04:57:43.173Z,22
2022-08-17T05:00:40.382Z,22
2022-08-17T05:03:40.381Z,22
2022-08-17T05:06:40.382Z,22
2022-08-17T05:09:40.407Z,22
2022-08-17T05:12:40.391Z,22
2022-08-17T05:15:44.794Z,22
2022-08-17T05:18:40.407Z,22
2022-08-17T05:21:40.394Z,22
2022-08-17T05:24:43.154Z,22
2022-08-17T05:27:40.403Z,22.05
2022-08-17T05:30:40.389Z,22.05
2022-08-17T05:33:43.971Z,22.05
2022-08-17T05:36:43.803Z,22.1
2022-08-17T05:39:40.408Z,22.1
2022-08-17T05:42:40.425Z,22.15
2022-08-17T05:45:55.057Z,22.2
2022-08-17T05:51:40.396Z,22.25
2022-08-17T05:54:40.389Z,22.25
2022-08-17T05:57:42.455Z,22.3
2022-08-17T06:00:41.796Z,22.3
2022-08-17T06:03:40.392Z,22.3
2022-08-17T06:06:40.395Z,22.4
2022-08-17T06:09:40.397Z,22.4
2022-08-17T06:12:40.390Z,22.45
2022-08-17T06:15:40.390Z,22.45
2022-08-17T06:18:40.390Z,22.45
2022-08-17T06:21:40.393Z,22.5
2022-08-17T06:24:40.395Z,22.55
2022-08-17T06:27:40.397Z,22.55
2022-08-17T06:30:57.645Z,22.65
2022-08-17T06:33:40.392Z,22.65
2022-08-17T06:36:40.397Z,22.65
2022-08-17T06:39:40.412Z,22.7
2022-08-17T06:42:54.375Z,22.75
2022-08-17T06:45:40.390Z,22.75
2022-08-17T06:48:40.389Z,22.8
2022-08-17T06:51:40.402Z,22.85
2022-08-17T06:54:40.392Z,22.85
2022-08-17T06:57:40.391Z,22.85
2022-08-17T07:00:40.480Z,22.9
2022-08-17T07:03:40.395Z,22.9
2022-08-17T07:06:40.392Z,22.9
2022-08-17T07:09:40.391Z,22.9
2022-08-17T07:12:40.396Z,22.9
2022-08-17T07:15:40.396Z,22.95
2022-08-17T07:18:40.399Z,22.95
2022-08-17T07:21:40.402Z,22.95
2022-08-17T07:24:40.396Z,22.95
2022-08-17T07:27:40.402Z,22.95
2022-08-17T07:30:45.536Z,22.95
2022-08-17T07:33:40.392Z,23
2022-08-17T07:36:40.394Z,23
2022-08-17T07:39:59.071Z,23.05
2022-08-17T07:42:44.579Z,23.05
2022-08-17T07:45:40.400Z,23.1
2022-08-17T07:48:40.394Z,23.15
2022-08-17T07:51:40.408Z,23.15
2022-08-17T07:54:40.404Z,23.2
2022-08-17T07:57:40.400Z,23.25
2022-08-17T08:00:40.398Z,23.25
2022-08-17T08:03:40.403Z,23.35
2022-08-17T08:06:40.405Z,23.35
2022-08-17T08:09:40.401Z,23.35
2022-08-17T08:12:40.406Z,23.35
2022-08-17T08:15:40.403Z,23.35
2022-08-17T08:18:55.202Z,23.35
2022-08-17T08:21:40.397Z,23.35
2022-08-17T08:24:40.410Z,23.35
2022-08-17T08:27:40.401Z,23.35
2022-08-17T08:30:40.402Z,23.3
2022-08-17T08:33:40.404Z,23.3
2022-08-17T08:36:56.565Z,23.3
2022-08-17T08:39:40.465Z,23.3
2022-08-17T08:42:40.400Z,23.3
2022-08-17T08:45:40.407Z,23.3
2022-08-17T08:48:46.023Z,23.3
2022-08-17T08:51:40.408Z,23.3
2022-08-17T08:54:40.405Z,23.3
2022-08-17T08:57:40.408Z,23.3
2022-08-17T09:00:40.409Z,23.3
2022-08-17T09:03:52.145Z,23.3
2022-08-17T09:06:40.427Z,23.3
2022-08-17T09:09:40.412Z,23.3
2022-08-17T09:12:40.416Z,23.25
2022-08-17T09:15:40.418Z,23.25
2022-08-17T09:19:02.061Z,23.25
2022-08-17T09:21:41.503Z,23.25
2022-08-17T09:24:40.424Z,23.25
2022-08-17T09:27:40.420Z,23.2
2022-08-17T09:30:40.415Z,23.2
2022-08-17T09:33:40.421Z,23.2
2022-08-17T09:36:40.421Z,23.2
2022-08-17T09:39:40.469Z,23.2
2022-08-17T09:42:40.411Z,23.25
2022-08-17T09:45:40.415Z,23.3
2022-08-17T09:48:40.421Z,23.3
2022-08-17T09:51:40.424Z,23.4
2022-08-17T09:54:40.809Z,23.45
2022-08-17T09:57:40.438Z,23.5
2022-08-17T10:00:40.423Z,23.6
2022-08-17T10:03:40.426Z,23.65
2022-08-17T10:06:40.416Z,23.7
2022-08-17T10:09:40.425Z,23.75
2022-08-17T10:12:40.419Z,23.75
2022-08-17T10:15:42.537Z,23.85
2022-08-17T10:18:40.422Z,23.9
2022-08-17T10:21:40.422Z,23.95
2022-08-17T10:24:40.420Z,24
2022-08-17T10:27:40.432Z,24.1
2022-08-17T10:30:40.428Z,24.2
2022-08-17T10:33:40.446Z,24.25
2022-08-17T10:36:40.445Z,24.35
2022-08-17T10:39:50.640Z,24.45
2022-08-17T10:42:40.447Z,24.55
2022-08-17T10:45:40.426Z,24.55
2022-08-17T10:48:40.445Z,24.6
2022-08-17T10:51:40.429Z,24.7
2022-08-17T10:54:40.448Z,24.8
2022-08-17T10:57:40.456Z,24.8
2022-08-17T11:00:40.466Z,24.8
2022-08-17T11:03:40.451Z,24.85
2022-08-17T11:06:40.431Z,24.85
2022-08-17T11:09:40.445Z,24.8
2022-08-17T11:12:42.319Z,24.75
2022-08-17T11:15:40.452Z,24.7
2022-08-17T11:18:40.455Z,24.6
2022-08-17T11:21:40.444Z,24.55
2022-08-17T11:24:40.433Z,24.55
2022-08-17T11:27:40.431Z,24.5
2022-08-17T11:30:40.453Z,24.45
2022-08-17T11:33:40.445Z,24.45
2022-08-17T11:36:40.432Z,24.45
2022-08-17T11:39:40.495Z,24.45
2022-08-17T11:42:40.446Z,24.5
2022-08-17T11:45:40.431Z,24.6
2022-08-17T11:48:40.448Z,24.65
2022-08-17T11:51:40.451Z,24.65
2022-08-17T11:54:40.433Z,24.75
2022-08-17T11:57:40.432Z,24.8
2022-08-17T12:00:40.445Z,25
2022-08-17T12:03:40.453Z,25.15
2022-08-17T12:06:40.445Z,25.3
2022-08-17T12:09:40.439Z,25.4
2022-08-17T12:12:40.448Z,25.55
2022-08-17T12:15:40.438Z,25.6
2022-08-17T12:18:40.446Z,25.75
2022-08-17T12:21:40.446Z,25.85
2022-08-17T12:24:40.448Z,25.9
2022-08-17T12:27:53.034Z,26
2022-08-17T12:30:40.460Z,26.1
2022-08-17T12:33:40.457Z,26.2
2022-08-17T12:36:40.454Z,26.35
2022-08-17T12:39:40.594Z,26.35
2022-08-17T12:42:40.445Z,26.35
2022-08-17T12:45:40.469Z,26.3
2022-08-17T12:48:40.455Z,26.3
2022-08-17T12:51:40.454Z,26.35
2022-08-17T12:54:40.452Z,26.35
2022-08-17T12:57:40.452Z,26.4
2022-08-17T13:00:40.454Z,26.4
2022-08-17T13:03:40.453Z,26.4
2022-08-17T13:06:40.457Z,26.45
2022-08-17T13:09:40.938Z,26.4
2022-08-17T13:12:40.456Z,26.4
2022-08-17T13:15:43.221Z,26.4
2022-08-17T13:18:40.463Z,26.4
2022-08-17T13:21:40.463Z,26.5
2022-08-17T13:24:40.453Z,26.5
2022-08-17T13:27:40.453Z,26.6
2022-08-17T13:30:40.458Z,26.65
2022-08-17T13:33:43.538Z,26.75
2022-08-17T13:36:40.458Z,26.8
2022-08-17T13:39:40.574Z,26.8
2022-08-17T13:42:50.276Z,26.85
2022-08-17T13:45:40.453Z,26.8
2022-08-17T13:48:40.463Z,26.8
2022-08-17T13:51:40.461Z,26.75
2022-08-17T13:54:40.455Z,26.7
2022-08-17T13:57:40.460Z,26.65
2022-08-17T14:00:40.455Z,26.65
2022-08-17T14:03:40.460Z,26.65
2022-08-17T14:06:51.723Z,26.7
2022-08-17T14:09:40.460Z,26.7
2022-08-17T14:12:40.463Z,26.75
2022-08-17T14:15:53.790Z,26.8
2022-08-17T14:18:55.605Z,26.8
2022-08-17T14:21:40.469Z,26.8
2022-08-17T14:24:44.563Z,26.85
2022-08-17T14:27:41.660Z,26.9
2022-08-17T14:30:40.469Z,26.9
2022-08-17T14:33:40.466Z,26.95
2022-08-17T14:36:40.462Z,26.95
2022-08-17T14:39:40.558Z,27
2022-08-17T14:42:40.462Z,27.05
2022-08-17T14:45:40.469Z,27.05
2022-08-17T14:48:40.470Z,27.05
2022-08-17T14:51:43.939Z,27.05
2022-08-17T14:54:45.229Z,27.05
2022-08-17T14:57:40.467Z,27
2022-08-17T15:00:40.476Z,27
2022-08-17T15:03:40.466Z,27
2022-08-17T15:06:40.491Z,27
2022-08-17T15:09:40.467Z,27
2022-08-17T15:12:40.468Z,27
2022-08-17T15:15:40.476Z,27
2022-08-17T15:18:40.486Z,26.95
2022-08-17T15:21:40.466Z,26.95
2022-08-17T15:24:40.470Z,26.95
2022-08-17T15:27:40.615Z,27
2022-08-17T15:30:40.463Z,27
2022-08-17T15:33:40.467Z,27
2022-08-17T15:36:40.662Z,27
2022-08-17T15:39:40.499Z,27
2022-08-17T15:42:40.474Z,27
2022-08-17T15:45:40.475Z,27
2022-08-17T15:48:40.478Z,27
2022-08-17T15:51:40.477Z,26.95
2022-08-17T15:54:40.483Z,26.95
2022-08-17T15:57:40.481Z,26.95
2022-08-17T16:00:44.140Z,26.95
2022-08-17T16:03:47.265Z,26.95
2022-08-17T16:06:40.491Z,26.95
2022-08-17T16:09:40.599Z,27
2022-08-17T16:12:40.474Z,26.95
2022-08-17T16:15:40.478Z,26.95
2022-08-17T16:18:40.491Z,26.95
2022-08-17T16:21:42.588Z,26.95
2022-08-17T16:24:43.474Z,26.95
2022-08-17T16:27:40.509Z,26.95
2022-08-17T16:30:40.502Z,26.95
2022-08-17T16:33:40.510Z,27
2022-08-17T16:36:40.509Z,27
2022-08-17T16:39:40.538Z,27
2022-08-17T16:42:40.520Z,27
2022-08-17T16:45:41.043Z,27
2022-08-17T16:48:40.516Z,27.05
2022-08-17T16:51:40.506Z,27.05
2022-08-17T16:54:40.514Z,27.05
2022-08-17T16:57:46.158Z,27.1
2022-08-17T17:00:40.537Z,27.1
2022-08-17T17:03:40.513Z,27.1
2022-08-17T17:06:40.508Z,27.1
2022-08-17T17:09:40.515Z,27.1
2022-08-17T17:12:59.753Z,27.1
2022-08-17T17:15:40.507Z,27.05
2022-08-17T17:18:40.506Z,27
2022-08-17T17:21:40.516Z,27
2022-08-17T17:24:40.521Z,27
2022-08-17T17:27:40.509Z,27
2022-08-17T17:30:40.520Z,27
2022-08-17T17:33:40.517Z,26.95
2022-08-17T17:36:40.515Z,26.9
2022-08-17T17:39:40.527Z,26.9
2022-08-17T17:42:40.523Z,26.9
2022-08-17T17:45:40.527Z,26.9
2022-08-17T17:48:40.532Z,26.9
2022-08-17T17:51:55.144Z,26.85
2022-08-17T17:54:40.520Z,26.85
2022-08-17T17:57:40.521Z,26.85
2022-08-17T18:00:40.525Z,26.8
2022-08-17T18:03:40.527Z,26.75
2022-08-17T18:06:40.532Z,26.75
2022-08-17T18:09:40.525Z,26.75
2022-08-17T18:12:40.524Z,26.7
2022-08-17T18:15:40.521Z,26.65
2022-08-17T18:18:40.616Z,26.65
2022-08-17T18:21:40.531Z,26.55
2022-08-17T18:24:40.530Z,26.55
2022-08-17T18:27:40.534Z,26.5
2022-08-17T18:30:40.532Z,26.4
2022-08-17T18:33:40.527Z,26.4
2022-08-17T18:36:40.534Z,26.35
2022-08-17T18:39:40.580Z,26.3
2022-08-17T18:42:40.539Z,26.2
2022-08-17T18:45:40.530Z,26.2
2022-08-17T18:48:40.529Z,26.1
2022-08-17T18:51:42.542Z,26.05
2022-08-17T18:54:40.517Z,26
2022-08-17T18:57:40.534Z,26
2022-08-17T19:00:40.531Z,25.9
2022-08-17T19:03:40.526Z,25.85
2022-08-17T19:06:40.530Z,25.8
2022-08-17T19:09:40.534Z,25.75
2022-08-17T19:12:40.534Z,25.7
2022-08-17T19:15:40.535Z,25.7
2022-08-17T19:18:40.605Z,25.65
2022-08-17T19:21:40.563Z,25.6
2022-08-17T19:24:47.466Z,25.55
2022-08-17T19:27:41.739Z,25.5
2022-08-17T19:30:40.567Z,25.5
2022-08-17T19:33:40.566Z,25.4
2022-08-17T19:36:40.563Z,25.4
2022-08-17T19:39:40.595Z,25.35
2022-08-17T19:42:40.564Z,25.35
2022-08-17T19:45:40.572Z,25.3
2022-08-17T19:48:40.569Z,25.25
2022-08-17T19:51:40.573Z,25.25
2022-08-17T19:54:40.568Z,25.2
2022-08-17T19:57:40.570Z,25.2
2022-08-17T20:00:40.573Z,25.15
2022-08-17T20:03:40.576Z,25.15
2022-08-17T20:06:40.569Z,25.1
2022-08-17T20:09:40.569Z,25.05
2022-08-17T20:12:40.574Z,25.05
2022-08-17T20:15:40.567Z,25
2022-08-17T20:18:41.709Z,25
2022-08-17T20:21:40.577Z,24.95
2022-08-17T20:24:40.605Z,24.9
2022-08-17T20:27:40.573Z,24.85
2022-08-17T20:30:40.575Z,24.85
2022-08-17T20:33:40.571Z,24.75
2022-08-17T20:36:40.576Z,24.75
2022-08-17T20:39:40.626Z,24.75
2022-08-17T20:42:40.579Z,24.7
2022-08-17T20:45:40.577Z,24.6
2022-08-17T20:48:41.025Z,24.6
2022-08-17T20:51:40.582Z,24.55
2022-08-17T20:54:40.579Z,24.55
2022-08-17T20:57:40.576Z,24.45
2022-08-17T21:00:40.576Z,24.4
2022-08-17T21:03:48.019Z,24.4
2022-08-17T21:06:40.580Z,24.35
2022-08-17T21:09:40.574Z,24.3
2022-08-17T21:12:40.585Z,24.3
2022-08-17T21:15:40.584Z,24.25
2022-08-17T21:18:40.582Z,24.2
2022-08-17T21:21:40.582Z,24.2
2022-08-17T21:24:40.578Z,24.2
2022-08-17T21:27:40.585Z,24.1
2022-08-17T21:30:41.040Z,24.1
2022-08-17T21:33:40.579Z,24.1
2022-08-17T21:36:40.577Z,24.05
2022-08-17T21:39:40.655Z,24
2022-08-17T21:42:40.591Z,24
2022-08-17T21:45:40.584Z,23.95
2022-08-17T21:48:40.583Z,23.95
2022-08-17T21:51:40.605Z,23.9
2022-08-17T21:54:40.590Z,23.85
2022-08-17T21:57:40.591Z,23.85
2022-08-17T22:00:40.616Z,23.85
2022-08-17T22:03:40.584Z,23.8
2022-08-17T22:06:40.590Z,23.8
2022-08-17T22:09:40.595Z,23.75
2022-08-17T22:12:40.587Z,23.75
2022-08-17T22:15:40.587Z,23.7
2022-08-17T22:18:40.582Z,23.7
2022-08-17T22:21:40.591Z,23.65
2022-08-17T22:24:40.592Z,23.65
2022-08-17T22:27:40.598Z,23.6
2022-08-17T22:30:40.605Z,23.6
2022-08-17T22:33:40.607Z,23.6
2022-08-17T22:36:40.589Z,23.55
2022-08-17T22:39:40.764Z,23.55
2022-08-17T22:42:40.588Z,23.6
2022-08-17T22:45:40.590Z,23.6
2022-08-17T22:48:40.594Z,23.6
2022-08-17T22:51:40.591Z,23.6
2022-08-17T22:54:40.595Z,23.7
2022-08-17T22:57:40.593Z,23.7
2022-08-17T23:00:40.594Z,23.7
2022-08-17T23:03:40.596Z,23.7
2022-08-17T23:06:40.608Z,23.7
2022-08-17T23:09:40.603Z,23.7
2022-08-17T23:12:40.603Z,23.7
2022-08-17T23:15:40.601Z,23.75
2022-08-17T23:18:40.600Z,23.75
2022-08-17T23:21:40.601Z,23.75
2022-08-17T23:24:40.612Z,23.75
2022-08-17T23:27:40.604Z,23.7
2022-08-17T23:30:40.601Z,23.7
2022-08-17T23:33:40.605Z,23.7
2022-08-17T23:36:40.604Z,23.7
2022-08-17T23:39:40.649Z,23.7
2022-08-17T23:42:43.717Z,23.7
2022-08-17T23:45:40.607Z,23.7
2022-08-17T23:48:40.600Z,23.65
2022-08-17T23:51:40.611Z,23.65
2022-08-17T23:54:40.606Z,23.65
2022-08-17T23:57:40.609Z,23.65
